Wingina, Virginia
Current Conditions -  °F | °C
As of 2:15 AM on Sunday 23 Nov 2014 (Local Time) from KFVX Reporting Station
Clear Clear  
Wind Chill: 33°   Ceiling: Unl
Heat Index: 33°   Visibility: 10mi
Dew Point: 19°   Wind: 3mph
Humidity: 57%   Direction: 200°SSW
Pressure: 30.26"   Gusts: NA
Location:  37.64°N, 78.73°W
Report Text: KFVX 230715Z AUTO 20003KT 10SM CLR 01/M07 A3026 RMK AO2 T00061071
Loading
Personal Weather Stations






























Interactive Weather Map New forecast layout! Learn more

10-Day Weather Forecast

Advertisements
Track Severe Weather on mobile